sensor_id;sensor_type;location;lat;lon;timestamp;pressure;altitude;pressure_sealevel;temperature;humidity
73566;BME280;61846;52.970;-3.168;2023-03-14T00:01:33;98042.99;;;4.49;48.58
73566;BME280;61846;52.970;-3.168;2023-03-14T00:03:58;98051.61;;;5.30;46.85
73566;BME280;61846;52.970;-3.168;2023-03-14T00:06:24;98053.63;;;4.38;48.77
73566;BME280;61846;52.970;-3.168;2023-03-14T00:08:50;98045.28;;;4.13;50.03
73566;BME280;61846;52.970;-3.168;2023-03-14T00:11:18;98054.23;;;4.10;49.30
73566;BME280;61846;52.970;-3.168;2023-03-14T00:13:41;98052.39;;;4.20;49.49
73566;BME280;61846;52.970;-3.168;2023-03-14T00:16:09;98057.69;;;4.53;47.74
73566;BME280;61846;52.970;-3.168;2023-03-14T00:18:33;98057.89;;;3.81;49.64
73566;BME280;61846;52.970;-3.168;2023-03-14T00:20:59;98061.46;;;4.27;48.94
73566;BME280;61846;52.970;-3.168;2023-03-14T00:23:24;98072.30;;;4.43;48.36
73566;BME280;61846;52.970;-3.168;2023-03-14T00:25:50;98078.52;;;4.60;48.12
73566;BME280;61846;52.970;-3.168;2023-03-14T00:28:16;98096.19;;;3.83;48.89
73566;BME280;61846;52.970;-3.168;2023-03-14T00:30:41;98099.90;;;3.97;48.68
73566;BME280;61846;52.970;-3.168;2023-03-14T00:33:07;98118.87;;;3.83;48.07
73566;BME280;61846;52.970;-3.168;2023-03-14T00:35:33;98113.31;;;3.80;48.96
73566;BME280;61846;52.970;-3.168;2023-03-14T00:37:59;98123.23;;;4.85;47.76
73566;BME280;61846;52.970;-3.168;2023-03-14T00:40:24;98119.52;;;4.91;45.95
73566;BME280;61846;52.970;-3.168;2023-03-14T00:42:50;98131.25;;;3.70;48.42
73566;BME280;61846;52.970;-3.168;2023-03-14T00:45:16;98132.59;;;3.84;47.58
73566;BME280;61846;52.970;-3.168;2023-03-14T00:47:41;98133.89;;;3.93;48.33
73566;BME280;61846;52.970;-3.168;2023-03-14T00:50:08;98146.07;;;4.35;48.36
73566;BME280;61846;52.970;-3.168;2023-03-14T00:52:33;98155.73;;;5.08;45.43
73566;BME280;61846;52.970;-3.168;2023-03-14T00:54:58;98164.25;;;4.35;47.10
73566;BME280;61846;52.970;-3.168;2023-03-14T00:57:24;98166.20;;;4.98;46.23
73566;BME280;61846;52.970;-3.168;2023-03-14T00:59:51;98165.80;;;5.03;44.27
73566;BME280;61846;52.970;-3.168;2023-03-14T01:02:15;98174.02;;;5.03;45.83
73566;BME280;61846;52.970;-3.168;2023-03-14T01:04:41;98184.50;;;5.86;43.67
73566;BME280;61846;52.970;-3.168;2023-03-14T01:07:07;98179.13;;;5.87;42.61
73566;BME280;61846;52.970;-3.168;2023-03-14T01:09:32;98188.81;;;5.78;42.73
73566;BME280;61846;52.970;-3.168;2023-03-14T01:11:58;98205.08;;;5.76;43.04
73566;BME280;61846;52.970;-3.168;2023-03-14T01:14:23;98198.56;;;5.34;43.33
73566;BME280;61846;52.970;-3.168;2023-03-14T01:16:49;98213.83;;;5.31;44.44
73566;BME280;61846;52.970;-3.168;2023-03-14T01:19:15;98214.84;;;5.28;43.49
73566;BME280;61846;52.970;-3.168;2023-03-14T01:21:40;98219.34;;;5.82;42.53
73566;BME280;61846;52.970;-3.168;2023-03-14T01:24:06;98226.54;;;4.44;45.18
73566;BME280;61846;52.970;-3.168;2023-03-14T01:26:33;98229.46;;;5.43;44.80
73566;BME280;61846;52.970;-3.168;2023-03-14T01:28:57;98246.15;;;5.71;43.91
73566;BME280;61846;52.970;-3.168;2023-03-14T01:31:23;98249.08;;;5.78;43.75
73566;BME280;61846;52.970;-3.168;2023-03-14T01:33:48;98251.45;;;5.03;44.39
73566;BME280;61846;52.970;-3.168;2023-03-14T01:36:15;98262.43;;;5.90;43.45
73566;BME280;61846;52.970;-3.168;2023-03-14T01:38:40;98269.42;;;5.86;44.32
73566;BME280;61846;52.970;-3.168;2023-03-14T01:41:06;98270.08;;;5.77;45.18
73566;BME280;61846;52.970;-3.168;2023-03-14T01:43:31;98281.05;;;4.90;47.08
73566;BME280;61846;52.970;-3.168;2023-03-14T01:46:18;98286.56;;;5.88;45.49
73566;BME280;61846;52.970;-3.168;2023-03-14T01:48:23;98302.86;;;6.16;45.23
73566;BME280;61846;52.970;-3.168;2023-03-14T01:50:48;98303.30;;;4.32;48.49
73566;BME280;61846;52.970;-3.168;2023-03-14T01:53:14;98306.41;;;5.53;47.45
73566;BME280;61846;52.970;-3.168;2023-03-14T01:55:39;98309.54;;;5.62;47.77
73566;BME280;61846;52.970;-3.168;2023-03-14T01:58:05;98315.93;;;5.69;46.93
73566;BME280;61846;52.970;-3.168;2023-03-14T02:00:31;98322.14;;;5.56;47.12
73566;BME280;61846;52.970;-3.168;2023-03-14T02:03:00;98325.07;;;5.39;48.20
73566;BME280;61846;52.970;-3.168;2023-03-14T02:05:24;98326.33;;;5.68;47.79
73566;BME280;61846;52.970;-3.168;2023-03-14T02:07:49;98333.20;;;5.25;48.22
73566;BME280;61846;52.970;-3.168;2023-03-14T02:10:15;98337.01;;;4.74;48.58
73566;BME280;61846;52.970;-3.168;2023-03-14T02:12:39;98335.64;;;4.89;50.27
73566;BME280;61846;52.970;-3.168;2023-03-14T02:15:05;98340.14;;;3.55;52.05
73566;BME280;61846;52.970;-3.168;2023-03-14T02:17:31;98354.61;;;3.64;52.60
73566;BME280;61846;52.970;-3.168;2023-03-14T02:20:09;98365.64;;;3.63;52.36
73566;BME280;61846;52.970;-3.168;2023-03-14T02:22:22;98355.68;;;3.84;51.95
73566;BME280;61846;52.970;-3.168;2023-03-14T02:24:54;98364.66;;;4.39;51.39
73566;BME280;61846;52.970;-3.168;2023-03-14T02:27:15;98378.32;;;3.48;53.05
73566;BME280;61846;52.970;-3.168;2023-03-14T02:29:43;98375.96;;;3.97;51.73
73566;BME280;61846;52.970;-3.168;2023-03-14T02:32:05;98379.16;;;4.21;51.25
73566;BME280;61846;52.970;-3.168;2023-03-14T02:34:31;98392.96;;;3.51;53.44
73566;BME280;61846;52.970;-3.168;2023-03-14T02:36:56;98407.47;;;3.27;54.00
73566;BME280;61846;52.970;-3.168;2023-03-14T02:39:26;98411.41;;;4.14;52.52
73566;BME280;61846;52.970;-3.168;2023-03-14T02:41:48;98423.85;;;3.66;53.32
73566;BME280;61846;52.970;-3.168;2023-03-14T02:44:13;98436.33;;;3.06;54.88
73566;BME280;61846;52.970;-3.168;2023-03-14T02:46:39;98442.50;;;4.32;53.11
73566;BME280;61846;52.970;-3.168;2023-03-14T02:49:08;98453.70;;;3.49;56.65
73566;BME280;61846;52.970;-3.168;2023-03-14T02:51:32;98465.87;;;4.00;55.29
73566;BME280;61846;52.970;-3.168;2023-03-14T02:53:56;98473.87;;;4.62;54.08
73566;BME280;61846;52.970;-3.168;2023-03-14T02:56:22;98482.74;;;2.87;56.82
73566;BME280;61846;52.970;-3.168;2023-03-14T02:58:48;98491.48;;;3.30;55.68
73566;BME280;61846;52.970;-3.168;2023-03-14T03:01:14;98492.82;;;4.29;53.64
73566;BME280;61846;52.970;-3.168;2023-03-14T03:03:39;98494.30;;;5.27;51.68
73566;BME280;61846;52.970;-3.168;2023-03-14T03:06:06;98503.35;;;4.65;51.44
73566;BME280;61846;52.970;-3.168;2023-03-14T03:08:31;98511.82;;;5.39;50.00
73566;BME280;61846;52.970;-3.168;2023-03-14T03:10:58;98515.53;;;5.33;49.73
73566;BME280;61846;52.970;-3.168;2023-03-14T03:13:22;98522.30;;;4.47;51.27
73566;BME280;61846;52.970;-3.168;2023-03-14T03:15:48;98526.63;;;4.24;52.03
73566;BME280;61846;52.970;-3.168;2023-03-14T03:18:14;98530.75;;;5.29;50.02
73566;BME280;61846;52.970;-3.168;2023-03-14T03:20:39;98539.32;;;5.47;49.42
73566;BME280;61846;52.970;-3.168;2023-03-14T03:23:05;98550.37;;;4.39;51.41
73566;BME280;61846;52.970;-3.168;2023-03-14T03:25:31;98559.73;;;6.06;48.47
73566;BME280;61846;52.970;-3.168;2023-03-14T03:27:57;98564.55;;;6.02;47.96
73566;BME280;61846;52.970;-3.168;2023-03-14T03:30:23;98570.29;;;6.35;47.10
73566;BME280;61846;52.970;-3.168;2023-03-14T03:32:49;98581.54;;;6.38;47.17
73566;BME280;61846;52.970;-3.168;2023-03-14T03:35:14;98591.46;;;6.42;46.74
73566;BME280;61846;52.970;-3.168;2023-03-14T03:37:40;98595.55;;;6.81;46.90
73566;BME280;61846;52.970;-3.168;2023-03-14T03:40:07;98598.35;;;6.55;46.88
73566;BME280;61846;52.970;-3.168;2023-03-14T03:42:32;98607.09;;;6.98;46.29
73566;BME280;61846;52.970;-3.168;2023-03-14T03:44:57;98614.14;;;7.04;46.31
73566;BME280;61846;52.970;-3.168;2023-03-14T03:47:22;98620.25;;;7.10;45.08
73566;BME280;61846;52.970;-3.168;2023-03-14T03:49:48;98631.29;;;7.41;45.17
73566;BME280;61846;52.970;-3.168;2023-03-14T03:52:14;98639.50;;;6.35;46.60
73566;BME280;61846;52.970;-3.168;2023-03-14T03:54:39;98646.70;;;7.05;45.73
73566;BME280;61846;52.970;-3.168;2023-03-14T03:57:05;98650.01;;;7.29;45.26
73566;BME280;61846;52.970;-3.168;2023-03-14T03:59:31;98654.06;;;7.16;44.56
73566;BME280;61846;52.970;-3.168;2023-03-14T04:01:57;98662.77;;;7.22;44.59
73566;BME280;61846;52.970;-3.168;2023-03-14T04:04:22;98670.14;;;6.73;45.29
73566;BME280;61846;52.970;-3.168;2023-03-14T04:06:48;98679.73;;;6.78;44.96
73566;BME280;61846;52.970;-3.168;2023-03-14T04:09:14;98685.50;;;7.27;44.68
73566;BME280;61846;52.970;-3.168;2023-03-14T04:11:39;98691.89;;;7.45;43.96
73566;BME280;61846;52.970;-3.168;2023-03-14T04:14:05;98703.62;;;6.92;45.05
73566;BME280;61846;52.970;-3.168;2023-03-14T04:16:31;98714.64;;;7.37;44.68
73566;BME280;61846;52.970;-3.168;2023-03-14T04:18:57;98725.13;;;6.96;45.02
73566;BME280;61846;52.970;-3.168;2023-03-14T04:21:22;98728.83;;;7.33;45.36
73566;BME280;61846;52.970;-3.168;2023-03-14T04:23:48;98735.09;;;7.29;44.71
73566;BME280;61846;52.970;-3.168;2023-03-14T04:26:14;98740.27;;;7.31;44.53
73566;BME280;61846;52.970;-3.168;2023-03-14T04:28:39;98741.82;;;6.55;45.67
73566;BME280;61846;52.970;-3.168;2023-03-14T04:31:09;98742.93;;;6.49;46.12
73566;BME280;61846;52.970;-3.168;2023-03-14T04:33:31;98752.93;;;7.12;45.22
73566;BME280;61846;52.970;-3.168;2023-03-14T04:35:56;98758.84;;;7.36;44.57
73566;BME280;61846;52.970;-3.168;2023-03-14T04:38:22;98769.93;;;6.80;45.84
73566;BME280;61846;52.970;-3.168;2023-03-14T04:40:48;98779.96;;;6.42;46.31
73566;BME280;61846;52.970;-3.168;2023-03-14T04:43:13;98784.81;;;7.47;44.93
73566;BME280;61846;52.970;-3.168;2023-03-14T04:45:41;98789.14;;;6.83;46.03
73566;BME280;61846;52.970;-3.168;2023-03-14T04:48:05;98802.54;;;6.29;46.55
73566;BME280;61846;52.970;-3.168;2023-03-14T04:50:31;98812.79;;;6.81;46.34
73566;BME280;61846;52.970;-3.168;2023-03-14T04:52:56;98821.08;;;6.98;44.99
73566;BME280;61846;52.970;-3.168;2023-03-14T04:55:22;98827.69;;;6.74;45.81
73566;BME280;61846;52.970;-3.168;2023-03-14T04:57:48;98841.28;;;6.05;48.20
73566;BME280;61846;52.970;-3.168;2023-03-14T05:00:14;98848.34;;;6.85;47.14
73566;BME280;61846;52.970;-3.168;2023-03-14T05:02:39;98857.68;;;6.41;47.73
73566;BME280;61846;52.970;-3.168;2023-03-14T05:05:05;98865.49;;;6.17;46.68
73566;BME280;61846;52.970;-3.168;2023-03-14T05:07:30;98873.97;;;5.99;46.97
73566;BME280;61846;52.970;-3.168;2023-03-14T05:09:56;98875.79;;;7.05;46.00
73566;BME280;61846;52.970;-3.168;2023-03-14T05:12:22;98887.21;;;6.92;46.37
73566;BME280;61846;52.970;-3.168;2023-03-14T05:14:47;98894.01;;;6.98;46.52
73566;BME280;61846;52.970;-3.168;2023-03-14T05:17:13;98894.71;;;6.47;46.92
73566;BME280;61846;52.970;-3.168;2023-03-14T05:19:39;98901.66;;;6.36;47.89
73566;BME280;61846;52.970;-3.168;2023-03-14T05:22:05;98903.02;;;6.65;46.71
73566;BME280;61846;52.970;-3.168;2023-03-14T05:24:30;98911.34;;;5.89;47.89
73566;BME280;61846;52.970;-3.168;2023-03-14T05:26:56;98921.37;;;6.23;47.26
73566;BME280;61846;52.970;-3.168;2023-03-14T05:29:22;98927.55;;;6.27;47.15
73566;BME280;61846;52.970;-3.168;2023-03-14T05:31:47;98935.35;;;5.93;48.42
73566;BME280;61846;52.970;-3.168;2023-03-14T05:34:13;98943.96;;;5.91;47.93
73566;BME280;61846;52.970;-3.168;2023-03-14T05:36:39;98951.45;;;6.11;47.20
73566;BME280;61846;52.970;-3.168;2023-03-14T05:39:05;98964.35;;;6.30;46.90
73566;BME280;61846;52.970;-3.168;2023-03-14T05:41:30;98970.10;;;5.93;46.79
73566;BME280;61846;52.970;-3.168;2023-03-14T05:43:56;98979.60;;;5.97;47.66
73566;BME280;61846;52.970;-3.168;2023-03-14T05:46:22;98986.62;;;5.69;48.15
73566;BME280;61846;52.970;-3.168;2023-03-14T05:48:48;98992.60;;;6.37;46.90
73566;BME280;61846;52.970;-3.168;2023-03-14T05:51:13;98997.61;;;6.52;46.29
73566;BME280;61846;52.970;-3.168;2023-03-14T05:53:39;99005.38;;;5.77;47.68
73566;BME280;61846;52.970;-3.168;2023-03-14T05:56:05;99013.34;;;6.01;46.91
73566;BME280;61846;52.970;-3.168;2023-03-14T05:58:30;99022.13;;;5.75;47.38
73566;BME280;61846;52.970;-3.168;2023-03-14T06:00:56;99028.77;;;6.05;47.31
73566;BME280;61846;52.970;-3.168;2023-03-14T06:03:22;99041.44;;;6.34;46.85
73566;BME280;61846;52.970;-3.168;2023-03-14T06:05:49;99050.68;;;5.43;48.38
73566;BME280;61846;52.970;-3.168;2023-03-14T06:08:13;99058.08;;;6.09;46.33
73566;BME280;61846;52.970;-3.168;2023-03-14T06:10:39;99070.87;;;6.08;46.98
73566;BME280;61846;52.970;-3.168;2023-03-14T06:13:05;99080.57;;;6.00;47.15
73566;BME280;61846;52.970;-3.168;2023-03-14T06:15:30;99088.99;;;6.40;47.14
73566;BME280;61846;52.970;-3.168;2023-03-14T06:17:56;99099.69;;;6.14;47.72
73566;BME280;61846;52.970;-3.168;2023-03-14T06:20:22;99108.13;;;5.78;48.46
73566;BME280;61846;52.970;-3.168;2023-03-14T06:22:48;99110.89;;;5.88;48.27
73566;BME280;61846;52.970;-3.168;2023-03-14T06:25:13;99111.82;;;5.53;49.20
73566;BME280;61846;52.970;-3.168;2023-03-14T06:27:39;99116.61;;;5.66;48.79
73566;BME280;61846;52.970;-3.168;2023-03-14T06:30:06;99125.10;;;5.13;48.93
73566;BME280;61846;52.970;-3.168;2023-03-14T06:32:31;99138.05;;;5.15;49.48
73566;BME280;61846;52.970;-3.168;2023-03-14T06:34:56;99145.49;;;5.58;48.70
73566;BME280;61846;52.970;-3.168;2023-03-14T06:37:22;99158.02;;;5.89;48.48
73566;BME280;61846;52.970;-3.168;2023-03-14T06:39:48;99165.80;;;5.75;47.85
73566;BME280;61846;52.970;-3.168;2023-03-14T06:42:13;99175.25;;;5.53;49.32
73566;BME280;61846;52.970;-3.168;2023-03-14T06:44:39;99177.66;;;6.47;47.56
73566;BME280;61846;52.970;-3.168;2023-03-14T06:47:05;99184.85;;;6.03;47.59
73566;BME280;61846;52.970;-3.168;2023-03-14T06:49:31;99190.24;;;5.89;47.84
73566;BME280;61846;52.970;-3.168;2023-03-14T06:51:56;99192.21;;;5.96;47.95
73566;BME280;61846;52.970;-3.168;2023-03-14T06:54:22;99200.87;;;6.51;47.04
73566;BME280;61846;52.970;-3.168;2023-03-14T06:56:48;99210.14;;;6.37;47.55
73566;BME280;61846;52.970;-3.168;2023-03-14T06:59:13;99217.01;;;6.65;47.29
73566;BME280;61846;52.970;-3.168;2023-03-14T07:01:39;99229.05;;;6.38;47.69
73566;BME280;61846;52.970;-3.168;2023-03-14T07:04:04;99231.47;;;6.44;47.40
73566;BME280;61846;52.970;-3.168;2023-03-14T07:06:30;99232.86;;;6.66;47.35
73566;BME280;61846;52.970;-3.168;2023-03-14T07:08:56;99230.62;;;7.15;47.22
73566;BME280;61846;52.970;-3.168;2023-03-14T07:11:21;99238.78;;;7.08;46.51
73566;BME280;61846;52.970;-3.168;2023-03-14T07:13:47;99253.40;;;7.09;46.51
73566;BME280;61846;52.970;-3.168;2023-03-14T07:16:13;99265.18;;;6.76;47.50
73566;BME280;61846;52.970;-3.168;2023-03-14T07:18:38;99272.51;;;6.81;46.69
73566;BME280;61846;52.970;-3.168;2023-03-14T07:21:05;99279.32;;;6.69;46.92
73566;BME280;61846;52.970;-3.168;2023-03-14T07:23:29;99282.36;;;6.12;47.07
73566;BME280;61846;52.970;-3.168;2023-03-14T07:25:55;99288.13;;;6.55;46.95
73566;BME280;61846;52.970;-3.168;2023-03-14T07:28:21;99295.17;;;6.18;47.97
73566;BME280;61846;52.970;-3.168;2023-03-14T07:30:47;99309.22;;;4.82;51.02
73566;BME280;61846;52.970;-3.168;2023-03-14T07:33:12;99309.05;;;5.23;49.53
73566;BME280;61846;52.970;-3.168;2023-03-14T07:35:38;99315.74;;;5.18;49.53
73566;BME280;61846;52.970;-3.168;2023-03-14T07:38:04;99315.99;;;6.21;48.70
73566;BME280;61846;52.970;-3.168;2023-03-14T07:40:28;99325.28;;;6.54;48.18
73566;BME280;61846;52.970;-3.168;2023-03-14T07:42:54;99325.73;;;7.04;47.05
73566;BME280;61846;52.970;-3.168;2023-03-14T07:45:20;99326.60;;;7.08;45.95
73566;BME280;61846;52.970;-3.168;2023-03-14T07:47:45;99340.95;;;5.32;49.25
73566;BME280;61846;52.970;-3.168;2023-03-14T07:50:11;99350.81;;;5.75;49.18
73566;BME280;61846;52.970;-3.168;2023-03-14T07:52:36;99351.52;;;6.14;47.99
73566;BME280;61846;52.970;-3.168;2023-03-14T07:55:02;99358.94;;;5.88;48.10
73566;BME280;61846;52.970;-3.168;2023-03-14T07:57:28;99369.48;;;5.60;49.03
73566;BME280;61846;52.970;-3.168;2023-03-14T07:59:54;99372.36;;;4.80;48.95
73566;BME280;61846;52.970;-3.168;2023-03-14T08:02:19;99376.38;;;5.82;48.80
73566;BME280;61846;52.970;-3.168;2023-03-14T08:04:45;99379.92;;;5.44;48.37
73566;BME280;61846;52.970;-3.168;2023-03-14T08:07:10;99388.47;;;4.60;49.63
73566;BME280;61846;52.970;-3.168;2023-03-14T08:09:36;99389.92;;;5.97;48.17
73566;BME280;61846;52.970;-3.168;2023-03-14T08:12:02;99399.26;;;5.50;47.88
73566;BME280;61846;52.970;-3.168;2023-03-14T08:14:28;99402.71;;;5.51;48.33
73566;BME280;61846;52.970;-3.168;2023-03-14T08:16:53;99413.54;;;4.51;51.11
73566;BME280;61846;52.970;-3.168;2023-03-14T08:19:19;99417.77;;;5.07;48.35
73566;BME280;61846;52.970;-3.168;2023-03-14T08:21:44;99422.26;;;4.94;49.76
73566;BME280;61846;52.970;-3.168;2023-03-14T08:24:09;99427.11;;;4.66;49.75
73566;BME280;61846;52.970;-3.168;2023-03-14T08:26:34;99429.75;;;5.75;47.25
73566;BME280;61846;52.970;-3.168;2023-03-14T08:29:00;99435.62;;;6.23;46.11
73566;BME280;61846;52.970;-3.168;2023-03-14T08:31:25;99437.18;;;6.89;45.94
73566;BME280;61846;52.970;-3.168;2023-03-14T08:33:51;99443.03;;;6.67;46.06
73566;BME280;61846;52.970;-3.168;2023-03-14T08:36:16;99455.71;;;7.27;46.09
73566;BME280;61846;52.970;-3.168;2023-03-14T08:38:42;99464.59;;;7.18;45.59
73566;BME280;61846;52.970;-3.168;2023-03-14T08:41:08;99468.68;;;6.95;43.97
73566;BME280;61846;52.970;-3.168;2023-03-14T08:43:32;99470.19;;;7.17;44.14
73566;BME280;61846;52.970;-3.168;2023-03-14T08:45:59;99476.40;;;7.84;44.66
73566;BME280;61846;52.970;-3.168;2023-03-14T08:48:24;99479.38;;;7.60;43.99
73566;BME280;61846;52.970;-3.168;2023-03-14T08:50:50;99482.60;;;7.76;43.56
73566;BME280;61846;52.970;-3.168;2023-03-14T08:53:15;99482.11;;;8.36;42.38
73566;BME280;61846;52.970;-3.168;2023-03-14T08:55:41;99488.73;;;8.26;41.61
73566;BME280;61846;52.970;-3.168;2023-03-14T08:58:06;99494.49;;;7.39;42.43
73566;BME280;61846;52.970;-3.168;2023-03-14T09:00:32;99501.54;;;7.82;44.21
73566;BME280;61846;52.970;-3.168;2023-03-14T09:02:57;99502.98;;;8.95;42.74
73566;BME280;61846;52.970;-3.168;2023-03-14T09:05:23;99511.61;;;8.28;41.78
73566;BME280;61846;52.970;-3.168;2023-03-14T09:07:48;99513.37;;;8.28;41.59
73566;BME280;61846;52.970;-3.168;2023-03-14T09:10:14;99520.80;;;7.70;42.47
73566;BME280;61846;52.970;-3.168;2023-03-14T09:12:39;99519.52;;;8.58;41.16
73566;BME280;61846;52.970;-3.168;2023-03-14T09:15:06;99529.53;;;8.83;39.71
73566;BME280;61846;52.970;-3.168;2023-03-14T09:17:31;99525.77;;;7.85;41.33
73566;BME280;61846;52.970;-3.168;2023-03-14T09:19:56;99531.91;;;8.54;42.65
73566;BME280;61846;52.970;-3.168;2023-03-14T09:22:22;99544.22;;;7.23;42.54
73566;BME280;61846;52.970;-3.168;2023-03-14T09:24:47;99550.92;;;8.09;42.23
73566;BME280;61846;52.970;-3.168;2023-03-14T09:27:13;99550.29;;;8.19;41.65
73566;BME280;61846;52.970;-3.168;2023-03-14T09:29:38;99557.39;;;8.74;41.25
73566;BME280;61846;52.970;-3.168;2023-03-14T09:32:04;99561.48;;;7.39;42.80
73566;BME280;61846;52.970;-3.168;2023-03-14T09:34:30;99566.31;;;8.69;41.45
73566;BME280;61846;52.970;-3.168;2023-03-14T09:36:55;99573.28;;;7.13;43.63
73566;BME280;61846;52.970;-3.168;2023-03-14T09:39:20;99567.38;;;7.42;41.55
73566;BME280;61846;52.970;-3.168;2023-03-14T09:41:47;99572.68;;;8.39;42.88
73566;BME280;61846;52.970;-3.168;2023-03-14T09:44:14;99573.77;;;9.14;40.23
73566;BME280;61846;52.970;-3.168;2023-03-14T09:46:38;99588.55;;;9.20;39.42
73566;BME280;61846;52.970;-3.168;2023-03-14T09:49:03;99586.07;;;8.92;38.99
73566;BME280;61846;52.970;-3.168;2023-03-14T09:51:28;99594.71;;;8.79;39.94
73566;BME280;61846;52.970;-3.168;2023-03-14T09:53:53;99601.61;;;7.67;42.03
73566;BME280;61846;52.970;-3.168;2023-03-14T09:56:21;99608.28;;;8.23;41.20
73566;BME280;61846;52.970;-3.168;2023-03-14T09:58:48;99607.73;;;7.93;41.96
73566;BME280;61846;52.970;-3.168;2023-03-14T10:01:12;99615.46;;;7.97;39.54
73566;BME280;61846;52.970;-3.168;2023-03-14T10:03:35;99619.50;;;7.80;39.87
73566;BME280;61846;52.970;-3.168;2023-03-14T10:06:01;99625.79;;;8.93;39.00
73566;BME280;61846;52.970;-3.168;2023-03-14T10:08:26;99635.67;;;8.34;36.87
73566;BME280;61846;52.970;-3.168;2023-03-14T10:10:52;99637.63;;;8.10;39.50
73566;BME280;61846;52.970;-3.168;2023-03-14T10:13:19;99645.53;;;8.26;38.89
73566;BME280;61846;52.970;-3.168;2023-03-14T10:15:48;99655.48;;;9.30;38.58
73566;BME280;61846;52.970;-3.168;2023-03-14T10:18:11;99664.03;;;7.81;36.60
73566;BME280;61846;52.970;-3.168;2023-03-14T10:20:35;99672.50;;;7.77;38.83
73566;BME280;61846;52.970;-3.168;2023-03-14T10:23:00;99674.37;;;7.29;37.22
73566;BME280;61846;52.970;-3.168;2023-03-14T10:25:27;99684.26;;;8.23;39.77
73566;BME280;61846;52.970;-3.168;2023-03-14T10:27:50;99685.86;;;8.11;39.30
73566;BME280;61846;52.970;-3.168;2023-03-14T10:30:28;99692.25;;;8.12;39.82
73566;BME280;61846;52.970;-3.168;2023-03-14T10:32:45;99698.27;;;7.66;36.39
73566;BME280;61846;52.970;-3.168;2023-03-14T10:37:32;99696.95;;;7.46;38.02
73566;BME280;61846;52.970;-3.168;2023-03-14T10:40:00;99695.07;;;8.21;35.66
73566;BME280;61846;52.970;-3.168;2023-03-14T10:42:26;99696.27;;;8.55;34.82
73566;BME280;61846;52.970;-3.168;2023-03-14T10:44:57;99701.99;;;9.08;34.99
73566;BME280;61846;52.970;-3.168;2023-03-14T10:47:19;99707.50;;;8.96;33.24
73566;BME280;61846;52.970;-3.168;2023-03-14T10:49:40;99706.04;;;9.05;33.07
73566;BME280;61846;52.970;-3.168;2023-03-14T10:52:15;99720.19;;;8.77;32.14
73566;BME280;61846;52.970;-3.168;2023-03-14T10:54:31;99719.71;;;8.91;31.78
73566;BME280;61846;52.970;-3.168;2023-03-14T10:56:58;99721.39;;;9.06;32.90
73566;BME280;61846;52.970;-3.168;2023-03-14T10:59:22;99721.25;;;9.25;32.90
73566;BME280;61846;52.970;-3.168;2023-03-14T11:01:52;99716.78;;;9.01;30.99
73566;BME280;61846;52.970;-3.168;2023-03-14T11:04:23;99710.79;;;9.47;32.74
73566;BME280;61846;52.970;-3.168;2023-03-14T11:06:42;99713.18;;;9.91;33.47
73566;BME280;61846;52.970;-3.168;2023-03-14T11:09:12;99710.12;;;9.81;33.03
73566;BME280;61846;52.970;-3.168;2023-03-14T11:11:30;99709.26;;;9.41;32.99
73566;BME280;61846;52.970;-3.168;2023-03-14T11:14:04;99716.25;;;10.16;32.80
73566;BME280;61846;52.970;-3.168;2023-03-14T11:16:26;99719.58;;;10.66;32.26
73566;BME280;61846;52.970;-3.168;2023-03-14T11:18:59;99714.43;;;10.92;30.13
73566;BME280;61846;52.970;-3.168;2023-03-14T11:21:15;99714.73;;;10.89;30.58
73566;BME280;61846;52.970;-3.168;2023-03-14T11:23:42;99721.54;;;9.73;28.30
73566;BME280;61846;52.970;-3.168;2023-03-14T11:26:13;99728.40;;;10.39;30.75
73566;BME280;61846;52.970;-3.168;2023-03-14T11:28:36;99726.82;;;10.28;28.78
73566;BME280;61846;52.970;-3.168;2023-03-14T11:30:56;99726.83;;;12.00;28.63
73566;BME280;61846;52.970;-3.168;2023-03-14T11:33:24;99727.89;;;11.77;28.45
73566;BME280;61846;52.970;-3.168;2023-03-14T11:35:49;99733.40;;;11.52;29.97
73566;BME280;61846;52.970;-3.168;2023-03-14T11:38:15;99729.92;;;10.25;27.77
73566;BME280;61846;52.970;-3.168;2023-03-14T11:40:37;99746.30;;;10.38;29.70
73566;BME280;61846;52.970;-3.168;2023-03-14T11:43:06;99742.86;;;9.37;28.09
73566;BME280;61846;52.970;-3.168;2023-03-14T11:45:32;99745.61;;;9.63;31.15
73566;BME280;61846;52.970;-3.168;2023-03-14T11:47:58;99742.44;;;10.23;29.39
73566;BME280;61846;52.970;-3.168;2023-03-14T11:50:21;99739.73;;;11.23;29.66
73566;BME280;61846;52.970;-3.168;2023-03-14T11:52:49;99753.80;;;10.60;28.87
73566;BME280;61846;52.970;-3.168;2023-03-14T11:55:12;99750.52;;;10.78;28.52
73566;BME280;61846;52.970;-3.168;2023-03-14T11:57:34;99759.22;;;9.95;28.86
73566;BME280;61846;52.970;-3.168;2023-03-14T12:00:03;99771.90;;;9.50;26.61
73566;BME280;61846;52.970;-3.168;2023-03-14T12:02:31;99778.68;;;8.18;29.45
73566;BME280;61846;52.970;-3.168;2023-03-14T12:05:03;99775.97;;;7.83;28.52
73566;BME280;61846;52.970;-3.168;2023-03-14T12:07:19;99778.43;;;7.86;29.54
73566;BME280;61846;52.970;-3.168;2023-03-14T12:09:43;99783.73;;;7.81;30.83
73566;BME280;61846;52.970;-3.168;2023-03-14T12:12:12;99779.99;;;8.05;30.83
73566;BME280;61846;52.970;-3.168;2023-03-14T12:14:35;99773.86;;;8.96;33.07
73566;BME280;61846;52.970;-3.168;2023-03-14T12:17:05;99771.28;;;9.84;30.10
73566;BME280;61846;52.970;-3.168;2023-03-14T12:19:28;99775.70;;;9.03;29.20
73566;BME280;61846;52.970;-3.168;2023-03-14T12:21:52;99775.15;;;9.66;28.07
73566;BME280;61846;52.970;-3.168;2023-03-14T12:24:19;99776.75;;;10.19;28.26
73566;BME280;61846;52.970;-3.168;2023-03-14T12:26:52;99773.63;;;10.16;29.60
73566;BME280;61846;52.970;-3.168;2023-03-14T12:29:16;99772.19;;;10.18;27.29
73566;BME280;61846;52.970;-3.168;2023-03-14T12:31:38;99776.48;;;10.01;29.29
73566;BME280;61846;52.970;-3.168;2023-03-14T12:34:02;99777.60;;;9.94;29.44
73566;BME280;61846;52.970;-3.168;2023-03-14T12:39:01;99794.79;;;9.45;30.77
73566;BME280;61846;52.970;-3.168;2023-03-14T12:41:18;99800.53;;;8.18;31.87
73566;BME280;61846;52.970;-3.168;2023-03-14T12:43:41;99790.54;;;9.14;33.11
73566;BME280;61846;52.970;-3.168;2023-03-14T12:48:32;99799.07;;;8.31;32.70
73566;BME280;61846;52.970;-3.168;2023-03-14T12:51:03;99793.04;;;8.28;34.09
73566;BME280;61846;52.970;-3.168;2023-03-14T12:55:53;99794.65;;;9.44;33.47
73566;BME280;61846;52.970;-3.168;2023-03-14T12:58:19;99799.23;;;8.10;32.92
73566;BME280;61846;52.970;-3.168;2023-03-14T13:00:40;99796.72;;;8.08;32.66